Time;durP1;ratioP1;P1;durP2;ratioP2;P2;SDS_P1;SDS_P2;PMS_P1;PMS_P2;Temp;Humidity;BMP_temperature;BMP_pressure;BME280_temperature;BME280_humidity;BME280_pressure;Samples;Min_cycle;Max_cycle;Signal;HPM_P1;HPM_P2
2023/07/25 00:02:12;;;;;;;3.88;1.60;;;;;;;22.98;51.61;100629.69;4997460;28;20172;-66
2023/07/25 00:04:37;;;;;;;4.03;1.37;;;;;;;22.99;51.37;100636.66;4997880;28;20120;-67
2023/07/25 00:07:03;;;;;;;3.58;1.30;;;;;;;22.96;51.29;100634.31;4997384;28;20260;-65
2023/07/25 00:09:28;;;;;;;2.95;1.42;;;;;;;22.97;51.38;100635.97;4997414;28;20086;-65
2023/07/25 00:11:54;;;;;;;3.67;1.30;;;;;;;22.97;51.41;100628.84;4996796;28;20479;-64
2023/07/25 00:14:19;;;;;;;3.17;1.30;;;;;;;22.95;51.25;100627.34;4997490;28;20037;-66
2023/07/25 00:16:44;;;;;;;3.47;1.30;;;;;;;22.96;51.31;100629.00;4996894;28;20030;-65
2023/07/25 00:19:09;;;;;;;4.28;1.33;;;;;;;22.96;51.47;100642.28;4997436;28;20471;-66
2023/07/25 00:21:35;;;;;;;3.88;1.45;;;;;;;22.94;51.06;100637.16;4996583;28;20399;-67
2023/07/25 00:24:00;;;;;;;4.50;1.40;;;;;;;22.93;51.08;100626.69;4996760;28;20069;-65
2023/07/25 00:26:25;;;;;;;2.65;1.35;;;;;;;22.93;51.21;100637.31;4996826;28;20130;-67
2023/07/25 00:28:51;;;;;;;2.63;1.23;;;;;;;22.93;50.88;100630.16;4997275;28;20046;-66
2023/07/25 00:31:17;;;;;;;3.53;1.40;;;;;;;22.92;50.88;100632.97;4997059;28;20276;-65
2023/07/25 00:33:42;;;;;;;4.07;1.55;;;;;;;22.92;51.33;100628.50;4996600;28;20501;-64
2023/07/25 00:36:07;;;;;;;3.67;1.30;;;;;;;22.90;51.25;100625.16;4996875;28;20116;-63
2023/07/25 00:38:33;;;;;;;3.75;1.50;;;;;;;22.92;51.29;100627.66;4996797;28;20038;-65
2023/07/25 00:40:58;;;;;;;5.07;1.60;;;;;;;22.91;51.00;100631.34;4996763;28;20022;-65
2023/07/25 00:43:23;;;;;;;3.10;1.42;;;;;;;22.90;50.73;100630.47;4996911;28;20034;-65
2023/07/25 00:45:49;;;;;;;2.80;1.23;;;;;;;22.90;51.13;100627.81;4997648;28;20034;-66
2023/07/25 00:48:14;;;;;;;4.03;1.33;;;;;;;22.90;50.88;100634.97;4997062;28;20034;-65
2023/07/25 00:50:40;;;;;;;3.38;1.40;;;;;;;22.89;50.77;100633.28;4996894;28;20061;-64
2023/07/25 00:53:06;;;;;;;4.00;1.40;;;;;;;22.89;50.57;100630.63;4996852;28;20028;-66
2023/07/25 00:55:32;;;;;;;3.28;1.50;;;;;;;22.88;50.91;100631.66;4995862;28;20026;-68
2023/07/25 00:57:58;;;;;;;3.92;1.33;;;;;;;22.87;51.02;100624.66;4997144;28;20030;-66
2023/07/25 01:00:23;;;;;;;4.10;1.40;;;;;;;22.88;50.46;100626.34;4995931;28;20037;-66
2023/07/25 01:02:49;;;;;;;3.10;1.20;;;;;;;22.87;51.04;100622.81;4995943;28;20462;-64
2023/07/25 01:05:14;;;;;;;3.70;1.33;;;;;;;22.86;50.83;100628.31;4996821;28;20065;-65
2023/07/25 01:07:40;;;;;;;3.92;1.52;;;;;;;22.85;51.11;100624.81;4996482;28;20048;-66
2023/07/25 01:10:07;;;;;;;4.43;1.40;;;;;;;22.85;51.06;100624.00;4996280;28;20085;-66
2023/07/25 01:12:32;;;;;;;3.35;1.30;;;;;;;22.83;50.57;100617.00;4996862;28;20041;-65
2023/07/25 01:14:57;;;;;;;4.13;1.60;;;;;;;22.85;50.78;100624.81;4996837;28;20030;-65
2023/07/25 01:17:24;;;;;;;2.83;1.20;;;;;;;22.85;50.37;100626.66;4995664;28;20033;-66
2023/07/25 01:19:51;;;;;;;3.08;1.30;;;;;;;22.84;50.92;100628.47;4995819;28;20048;-68
2023/07/25 01:22:18;;;;;;;3.42;1.40;;;;;;;22.82;50.81;100623.31;4995806;28;20085;-67
2023/07/25 01:24:45;;;;;;;2.67;1.13;;;;;;;22.80;50.37;100617.31;4995285;28;20066;-66
2023/07/25 01:27:11;;;;;;;3.33;1.30;;;;;;;22.82;50.82;100625.13;4995307;28;20030;-65
2023/07/25 01:29:37;;;;;;;3.15;1.45;;;;;;;22.81;50.65;100624.31;4995435;28;20046;-66
2023/07/25 01:32:02;;;;;;;3.38;1.60;;;;;;;22.80;50.60;100616.50;4996349;28;20431;-66
2023/07/25 01:34:28;;;;;;;4.63;1.42;;;;;;;22.79;50.69;100612.19;4986924;28;20033;-64
2023/07/25 01:36:53;;;;;;;2.97;1.35;;;;;;;22.79;50.31;100610.34;4996384;28;20513;-66
2023/07/25 01:39:18;;;;;;;3.92;1.40;;;;;;;22.80;50.46;100612.00;4996328;28;20491;-64
2023/07/25 01:41:44;;;;;;;2.85;1.10;;;;;;;22.77;50.53;100607.03;4996590;28;20030;-64
2023/07/25 01:44:10;;;;;;;3.35;1.77;;;;;;;22.78;50.44;100611.34;4996233;28;20049;-65
2023/07/25 01:46:35;;;;;;;4.05;1.42;;;;;;;22.78;50.43;100603.38;4996713;28;20053;-65
2023/07/25 01:49:01;;;;;;;3.45;1.20;;;;;;;22.78;50.21;100598.06;4996546;28;20435;-65
2023/07/25 01:51:26;;;;;;;2.85;1.20;;;;;;;22.76;50.32;100597.38;4986538;28;20084;-67
2023/07/25 01:53:53;;;;;;;2.80;1.40;;;;;;;22.78;50.15;100600.72;4996387;28;20030;-64
2023/07/25 01:56:19;;;;;;;3.60;1.40;;;;;;;22.76;50.39;100596.56;4996543;28;20061;-66
2023/07/25 01:58:45;;;;;;;3.22;1.40;;;;;;;22.76;50.49;100592.06;4996617;28;20034;-65
2023/07/25 02:01:10;;;;;;;4.00;1.25;;;;;;;22.75;50.04;100594.91;4995667;28;20034;-64
2023/07/25 02:03:35;;;;;;;3.25;1.50;;;;;;;22.76;49.96;100596.56;4986992;28;20061;-66
2023/07/25 02:06:01;;;;;;;4.15;1.50;;;;;;;22.75;50.07;100593.06;4996172;28;20038;-66
2023/07/25 02:08:26;;;;;;;3.45;1.30;;;;;;;22.75;50.29;100587.75;4995935;28;20057;-62
2023/07/25 02:10:51;;;;;;;3.47;1.40;;;;;;;22.75;50.14;100587.75;4996817;28;20451;-63
2023/07/25 02:13:17;;;;;;;4.53;1.30;;;;;;;22.74;49.88;100585.28;4999346;28;20026;-65
2023/07/25 02:15:42;;;;;;;2.87;1.20;;;;;;;22.75;50.04;100592.25;5000138;28;20105;-64
2023/07/25 02:18:07;;;;;;;4.03;1.27;;;;;;;22.73;50.22;100591.56;4999649;28;20264;-64
2023/07/25 02:20:33;;;;;;;3.28;1.50;;;;;;;22.74;50.26;100590.59;4999172;28;20140;-63
2023/07/25 02:22:59;;;;;;;3.25;1.40;;;;;;;22.72;49.73;100582.78;4990605;28;20054;-65
2023/07/25 02:25:28;;;;;;;3.55;1.23;;;;;;;22.71;50.27;100582.94;4999700;28;20078;-66
2023/07/25 02:27:53;;;;;;;5.07;1.60;;;;;;;22.72;49.68;100585.44;4999158;28;20414;-65
2023/07/25 02:30:20;;;;;;;5.07;1.55;;;;;;;22.70;49.68;100581.25;5000149;28;20089;-64
2023/07/25 02:32:46;;;;;;;3.70;1.50;;;;;;;22.72;49.72;100582.78;4999479;28;20034;-66
2023/07/25 02:35:13;;;;;;;2.97;1.40;;;;;;;22.71;50.14;100580.28;5000095;28;20037;-66
2023/07/25 02:37:38;;;;;;;3.25;1.40;;;;;;;22.71;49.50;100582.94;4999517;28;20041;-65
2023/07/25 02:40:04;;;;;;;3.22;1.30;;;;;;;22.70;49.74;100586.56;4999606;28;20042;-66
2023/07/25 02:42:29;;;;;;;3.40;1.33;;;;;;;22.70;49.98;100586.56;4999171;28;20030;-66
2023/07/25 02:44:55;;;;;;;2.43;1.23;;;;;;;22.69;49.58;100587.59;4998391;28;20041;-63
2023/07/25 02:47:20;;;;;;;3.47;1.60;;;;;;;22.68;49.89;100583.25;4998137;28;20264;-65
2023/07/25 02:49:45;;;;;;;2.00;1.10;;;;;;;22.70;49.71;100591.88;4999131;28;20034;-65
2023/07/25 02:52:10;;;;;;;4.28;1.40;;;;;;;22.68;49.85;100588.56;4998108;28;20033;-66
2023/07/25 02:54:36;;;;;;;4.18;1.25;;;;;;;22.68;49.36;100584.06;4998761;28;20061;-64
2023/07/25 02:57:01;;;;;;;2.88;1.30;;;;;;;22.68;49.62;100585.91;4998118;28;20026;-65
2023/07/25 02:59:29;;;;;;;3.88;1.50;;;;;;;22.65;49.35;100587.06;4998732;28;20037;-65
2023/07/25 03:01:54;;;;;;;6.55;1.50;;;;;;;22.67;49.42;100593.06;4998931;28;20039;-65
2023/07/25 03:04:19;;;;;;;2.72;1.40;;;;;;;22.66;49.32;100586.06;4999037;28;20038;-67
2023/07/25 03:06:45;;;;;;;3.17;1.40;;;;;;;22.66;49.47;100585.25;4998558;28;20040;-65
2023/07/25 03:09:10;;;;;;;3.60;1.33;;;;;;;22.64;49.78;100582.75;4998785;28;20331;-67
2023/07/25 03:11:35;;;;;;;3.10;1.40;;;;;;;22.66;49.18;100596.69;4998646;28;20124;-65
2023/07/25 03:14:00;;;;;;;6.03;1.55;;;;;;;22.64;49.71;100588.06;4998752;28;20127;-65
2023/07/25 03:16:26;;;;;;;3.20;1.57;;;;;;;22.65;49.29;100581.75;4998348;28;20077;-65
2023/07/25 03:18:51;;;;;;;3.72;1.38;;;;;;;22.64;49.51;100582.75;4998464;28;20267;-66
2023/07/25 03:21:16;;;;;;;3.13;1.20;;;;;;;22.64;49.39;100580.91;4998307;28;20030;-67
2023/07/25 03:23:42;;;;;;;3.10;1.40;;;;;;;22.62;49.41;100577.59;4996434;28;21303;-65
2023/07/25 03:26:07;;;;;;;3.05;1.52;;;;;;;22.64;49.75;100585.41;4998611;28;20567;-67
2023/07/25 03:28:32;;;;;;;3.67;1.45;;;;;;;22.62;49.30;100574.09;4998723;28;20038;-65
2023/07/25 03:30:58;;;;;;;4.78;1.60;;;;;;;22.62;49.28;100574.09;4998358;28;20095;-66
2023/07/25 03:33:23;;;;;;;3.60;1.30;;;;;;;22.61;49.87;100572.44;4997332;28;20034;-67
2023/07/25 03:35:48;;;;;;;3.88;2.08;;;;;;;22.61;49.69;100572.44;5028875;28;20356;-66
2023/07/25 03:38:14;;;;;;;3.05;1.40;;;;;;;22.62;49.39;100574.09;4997227;28;20487;-66
2023/07/25 03:40:39;;;;;;;3.80;1.30;;;;;;;22.61;49.69;100572.44;4997234;28;20120;-66
2023/07/25 03:43:04;;;;;;;4.07;1.50;;;;;;;22.61;49.15;100575.09;4997167;28;20517;-64
2023/07/25 03:45:29;;;;;;;3.05;1.30;;;;;;;22.60;49.63;100573.44;4997113;28;20471;-65
2023/07/25 03:47:55;;;;;;;2.85;1.17;;;;;;;22.61;49.49;100575.09;4997893;28;20030;-65
2023/07/25 03:50:20;;;;;;;3.27;1.30;;;;;;;22.60;49.42;100574.25;4997950;28;20042;-65
2023/07/25 03:52:45;;;;;;;4.18;1.80;;;;;;;22.60;49.33;100571.59;4997507;28;20279;-65
2023/07/25 03:55:11;;;;;;;2.50;1.13;;;;;;;22.59;49.05;100575.25;4997483;28;20038;-64
2023/07/25 03:57:36;;;;;;;3.50;1.30;;;;;;;22.60;49.44;100578.75;4997548;28;20062;-66
2023/07/25 04:00:02;;;;;;;3.00;1.30;;;;;;;22.60;49.56;100576.91;4997331;28;20384;-66
2023/07/25 04:02:27;;;;;;;2.28;1.05;;;;;;;22.59;49.48;100583.22;4997544;28;20030;-65
2023/07/25 04:04:52;;;;;;;3.58;1.50;;;;;;;22.57;49.69;100577.25;4997704;28;20088;-66
2023/07/25 04:07:18;;;;;;;3.00;1.25;;;;;;;22.57;49.25;100573.75;4997599;28;20072;-65
2023/07/25 04:09:43;;;;;;;5.00;1.30;;;;;;;22.56;49.07;100580.91;4998177;28;20026;-65
2023/07/25 04:12:08;;;;;;;3.75;1.35;;;;;;;22.57;49.07;100579.91;4997548;28;20092;-64
2023/07/25 04:14:34;;;;;;;3.00;1.20;;;;;;;22.59;49.15;100579.75;4997254;28;20033;-64
2023/07/25 04:16:59;;;;;;;3.45;1.30;;;;;;;22.56;49.45;100580.91;4997308;28;20096;-65
2023/07/25 04:19:24;;;;;;;3.33;1.17;;;;;;;22.58;49.57;100586.03;4997305;28;20037;-65
2023/07/25 04:21:49;;;;;;;3.17;1.35;;;;;;;22.57;49.29;100577.25;4996779;28;20072;-64
2023/07/25 04:24:15;;;;;;;3.25;1.30;;;;;;;22.57;49.42;100577.25;4996721;28;20037;-64
2023/07/25 04:26:40;;;;;;;3.22;1.40;;;;;;;22.56;49.01;100574.75;4997313;28;20030;-65
2023/07/25 04:29:05;;;;;;;3.80;1.35;;;;;;;22.56;49.06;100580.06;4997618;28;20034;-66
2023/07/25 04:31:31;;;;;;;3.10;1.13;;;;;;;22.56;49.35;100583.56;4996377;28;20061;-66
2023/07/25 04:33:56;;;;;;;3.17;1.40;;;;;;;22.52;49.45;100574.22;4996829;28;20045;-65
2023/07/25 04:36:22;;;;;;;2.72;1.30;;;;;;;22.55;49.16;100581.88;4996906;28;20068;-65
2023/07/25 04:38:47;;;;;;;3.90;1.20;;;;;;;22.53;49.35;100581.22;4988053;28;20033;-66
2023/07/25 04:41:12;;;;;;;3.40;1.50;;;;;;;22.54;49.21;100577.56;4995679;28;20061;-68
2023/07/25 04:43:37;;;;;;;3.85;1.38;;;;;;;22.56;49.46;100582.72;5028327;28;20072;-63
2023/07/25 04:46:03;;;;;;;2.97;1.20;;;;;;;22.53;49.39;100589.19;4984255;28;20030;-67
2023/07/25 04:48:28;;;;;;;4.10;1.55;;;;;;;22.53;48.96;100586.53;4996935;28;20375;-65
2023/07/25 04:50:53;;;;;;;3.63;1.50;;;;;;;22.55;49.05;100583.72;4996996;28;20025;-69
2023/07/25 04:53:19;;;;;;;3.05;1.30;;;;;;;22.53;48.93;100578.56;4996830;28;20365;-63
2023/07/25 04:55:44;;;;;;;4.07;1.60;;;;;;;22.54;49.02;100582.03;4997012;28;20030;-65
2023/07/25 04:58:10;;;;;;;2.53;1.10;;;;;;;22.55;49.25;100578.41;4997212;28;20026;-65
2023/07/25 05:00:35;;;;;;;2.65;1.08;;;;;;;22.52;49.39;100566.25;4996688;28;20030;-65
2023/07/25 05:03:00;;;;;;;2.85;1.20;;;;;;;22.53;49.09;100577.72;4996841;28;20411;-66
2023/07/25 05:05:26;;;;;;;2.80;1.35;;;;;;;22.49;49.15;100563.09;4997061;28;20030;-65
2023/07/25 05:07:51;;;;;;;4.00;1.40;;;;;;;22.53;49.26;100581.22;4996456;28;20391;-66
2023/07/25 05:10:16;;;;;;;3.28;1.40;;;;;;;22.54;49.02;100587.34;4996836;28;20038;-67
2023/07/25 05:12:42;;;;;;;2.97;1.20;;;;;;;22.52;49.03;100587.50;4996507;28;20458;-65
2023/07/25 05:15:07;;;;;;;2.47;1.38;;;;;;;22.53;48.93;100597.16;4996744;28;20603;-65
2023/07/25 05:17:33;;;;;;;3.80;1.30;;;;;;;22.53;49.74;100589.19;4996769;28;20386;-63
2023/07/25 05:19:58;;;;;;;3.50;1.40;;;;;;;22.53;49.22;100588.34;4996261;28;20041;-65
2023/07/25 05:22:23;;;;;;;3.42;1.20;;;;;;;22.52;49.01;100590.16;4996468;28;20030;-66
2023/07/25 05:24:49;;;;;;;3.45;1.38;;;;;;;22.53;49.32;100586.53;4994587;28;20045;-63
2023/07/25 05:27:15;;;;;;;4.05;1.52;;;;;;;22.51;49.44;100585.00;4996029;28;20040;-65
2023/07/25 05:29:40;;;;;;;3.80;1.35;;;;;;;22.51;49.46;100587.66;4996175;28;20453;-64
2023/07/25 05:32:06;;;;;;;3.13;1.40;;;;;;;22.51;49.08;100588.50;4995823;28;20125;-66
2023/07/25 05:34:31;;;;;;;3.20;1.38;;;;;;;22.52;49.54;100594.66;4996583;28;20038;-65
2023/07/25 05:36:56;;;;;;;3.85;1.48;;;;;;;22.51;49.28;100595.63;4996560;28;20059;-65
2023/07/25 05:39:22;;;;;;;5.30;1.40;;;;;;;22.52;49.32;100600.78;4996517;28;20033;-64
2023/07/25 05:41:47;;;;;;;4.30;1.23;;;;;;;22.53;49.01;100601.63;4996861;28;20406;-63
2023/07/25 05:44:12;;;;;;;4.00;1.30;;;;;;;22.49;49.51;100593.13;4996114;28;20015;-64
2023/07/25 05:46:38;;;;;;;4.35;1.50;;;;;;;22.52;49.55;100607.94;4998841;28;20026;-65
2023/07/25 05:49:03;;;;;;;3.67;1.20;;;;;;;22.51;49.29;100607.09;4997771;28;20036;-66
2023/07/25 05:51:28;;;;;;;3.70;1.38;;;;;;;22.52;49.26;100610.59;4999947;28;20454;-63
2023/07/25 05:53:53;;;;;;;3.58;1.30;;;;;;;22.52;49.36;100607.94;4998783;28;20081;-66
2023/07/25 05:56:19;;;;;;;3.55;1.30;;;;;;;22.51;49.17;100608.91;4999705;28;20867;-65
2023/07/25 05:58:44;;;;;;;3.80;1.77;;;;;;;22.50;49.23;100602.78;5000316;28;20064;-64
2023/07/25 06:01:10;;;;;;;2.65;1.38;;;;;;;22.51;49.48;100608.91;4999756;28;20432;-65
2023/07/25 06:03:35;;;;;;;4.53;1.60;;;;;;;22.51;49.23;100604.44;5000479;28;20511;-64
2023/07/25 06:06:01;;;;;;;3.78;1.33;;;;;;;22.51;49.23;100599.13;4999825;28;20052;-66
2023/07/25 06:08:26;;;;;;;3.42;1.48;;;;;;;22.50;49.31;100604.59;4999686;28;20439;-64
2023/07/25 06:10:51;;;;;;;3.55;1.23;;;;;;;22.51;49.45;100604.44;4999748;28;20033;-67
2023/07/25 06:13:17;;;;;;;4.18;1.65;;;;;;;22.52;49.55;100599.97;4998860;28;20040;-65
2023/07/25 06:15:43;;;;;;;3.05;1.42;;;;;;;22.50;49.50;100599.28;5030835;28;20105;-65
2023/07/25 06:18:08;;;;;;;4.03;1.17;;;;;;;22.49;49.30;100595.78;4998426;28;20402;-66
2023/07/25 06:20:34;;;;;;;5.53;1.55;;;;;;;22.50;49.15;100607.25;4999412;28;20069;-65
2023/07/25 06:23:00;;;;;;;2.60;1.20;;;;;;;22.50;49.49;100600.13;4998399;28;20038;-66
2023/07/25 06:25:27;;;;;;;5.10;1.52;;;;;;;22.52;49.32;100610.59;4999714;28;20077;-67
2023/07/25 06:27:53;;;;;;;3.90;1.60;;;;;;;22.54;48.94;100613.91;4998705;28;20104;-67
2023/07/25 06:30:19;;;;;;;2.72;1.38;;;;;;;22.54;49.02;100620.06;4999291;28;20459;-66
2023/07/25 06:32:44;;;;;;;3.88;1.38;;;;;;;22.52;49.36;100618.56;4999675;28;20041;-66
2023/07/25 06:35:09;;;;;;;3.22;1.60;;;;;;;22.52;49.27;100611.41;4999268;28;20049;-66
2023/07/25 06:37:36;;;;;;;4.95;1.40;;;;;;;22.48;49.43;100615.38;4999452;28;20042;-66
2023/07/25 06:40:03;;;;;;;3.40;1.27;;;;;;;22.47;49.65;100616.38;4999564;28;20813;-64
2023/07/25 06:42:29;;;;;;;5.55;1.55;;;;;;;22.48;49.92;100617.19;4998776;28;20026;-64
2023/07/25 06:44:54;;;;;;;4.53;1.50;;;;;;;22.46;49.89;100623.50;4998253;28;20026;-64
2023/07/25 06:47:20;;;;;;;4.18;1.30;;;;;;;22.48;49.75;100623.34;4998278;28;20065;-64
2023/07/25 06:49:45;;;;;;;3.03;1.20;;;;;;;22.48;50.21;100623.34;4997863;28;20069;-64
2023/07/25 06:52:11;;;;;;;2.95;1.30;;;;;;;22.48;50.48;100611.88;5004507;28;20456;-67
2023/07/25 06:54:40;;;;;;;5.53;1.52;;;;;;;22.50;50.29;100617.88;4998187;28;20038;-66
2023/07/25 06:57:05;;;;;;;4.47;1.20;;;;;;;22.48;50.35;100611.88;4998094;28;20026;-66
2023/07/25 06:59:31;;;;;;;2.83;1.20;;;;;;;22.48;50.28;100614.53;4998334;28;20145;-66
2023/07/25 07:01:56;;;;;;;4.38;1.30;;;;;;;22.48;50.67;100615.38;4998328;28;20037;-66
2023/07/25 07:04:22;;;;;;;4.30;1.50;;;;;;;22.48;50.65;100611.88;4998543;28;20418;-66
2023/07/25 07:06:47;;;;;;;4.30;1.40;;;;;;;22.50;50.35;100616.06;4998939;28;20041;-66
2023/07/25 07:09:13;;;;;;;3.58;1.35;;;;;;;22.49;50.77;100619.69;4997682;28;20389;-65
2023/07/25 07:11:39;;;;;;;5.35;1.58;;;;;;;22.53;50.73;100630.84;4999095;28;20842;-66
2023/07/25 07:14:04;;;;;;;4.45;1.55;;;;;;;22.53;50.81;100633.50;4998483;28;21312;-66
2023/07/25 07:16:30;;;;;;;3.28;1.20;;;;;;;22.53;50.54;100625.53;4998547;28;20073;-66
2023/07/25 07:18:55;;;;;;;3.67;1.35;;;;;;;22.53;50.38;100626.34;4997811;28;20048;-66
2023/07/25 07:21:20;;;;;;;4.78;1.35;;;;;;;22.53;50.60;100630.84;4998491;28;20146;-66
2023/07/25 07:23:46;;;;;;;4.75;1.60;;;;;;;22.59;50.31;100631.03;4995572;28;20033;-67
2023/07/25 07:26:11;;;;;;;7.00;1.55;;;;;;;22.64;50.45;100633.22;4997523;28;20053;-67
2023/07/25 07:28:37;;;;;;;4.53;1.25;;;;;;;22.67;50.50;100632.91;4998407;28;20108;-63
2023/07/25 07:31:02;;;;;;;6.03;1.80;;;;;;;22.69;50.29;100633.56;4996620;28;20136;-66
2023/07/25 07:33:29;;;;;;;4.72;1.23;;;;;;;22.69;50.35;100635.41;4997363;28;20058;-66
2023/07/25 07:35:55;;;;;;;3.72;1.45;;;;;;;22.72;50.53;100637.75;4998087;28;20037;-67
2023/07/25 07:38:20;;;;;;;4.85;1.27;;;;;;;22.71;50.41;100636.88;4997444;28;20038;-67
2023/07/25 07:40:46;;;;;;;4.97;1.30;;;;;;;22.73;50.21;100637.56;4997345;28;20045;-66
2023/07/25 07:43:11;;;;;;;7.95;1.60;;;;;;;22.74;50.27;100646.38;4997960;28;20087;-64
2023/07/25 07:45:36;;;;;;;4.47;1.35;;;;;;;22.72;49.79;100643.88;4997583;28;20490;-66
2023/07/25 07:48:02;;;;;;;8.15;1.60;;;;;;;22.73;49.35;100650.84;4987802;28;20030;-66
2023/07/25 07:50:29;;;;;;;6.22;1.30;;;;;;;22.75;49.54;100654.19;4997881;28;20055;-66
2023/07/25 07:52:54;;;;;;;7.88;1.60;;;;;;;22.74;49.14;100651.69;4997506;28;20038;-67
2023/07/25 07:55:20;;;;;;;7.53;1.48;;;;;;;22.76;49.44;100661.13;4997969;28;20064;-66
2023/07/25 07:57:46;;;;;;;5.55;1.50;;;;;;;22.74;49.38;100663.13;4997261;28;20026;-65
2023/07/25 08:00:14;;;;;;;7.38;1.50;;;;;;;22.71;49.75;100658.13;4997144;28;20626;-66
2023/07/25 08:02:41;;;;;;;6.55;1.30;;;;;;;22.72;49.57;100664.31;4996056;28;20049;-66
2023/07/25 08:05:07;;;;;;;8.43;1.67;;;;;;;22.65;49.47;100664.06;4997022;28;20411;-65
2023/07/25 08:07:33;;;;;;;4.18;1.25;;;;;;;22.61;49.86;100662.75;4996568;28;20367;-66
2023/07/25 08:09:58;;;;;;;3.45;1.20;;;;;;;22.54;49.55;100662.56;4986996;28;20084;-66
2023/07/25 08:12:24;;;;;;;4.68;1.13;;;;;;;22.51;49.88;100676.16;4996865;28;20041;-66
2023/07/25 08:14:49;;;;;;;4.78;1.08;;;;;;;22.45;49.25;100672.28;4996919;28;20034;-66
2023/07/25 08:17:15;;;;;;;6.82;1.40;;;;;;;22.41;49.29;100668.28;4996748;28;20070;-66
2023/07/25 08:19:41;;;;;;;5.03;1.30;;;;;;;22.38;49.25;100670.41;4997132;28;20042;-66
2023/07/25 08:22:06;;;;;;;3.55;1.23;;;;;;;22.38;48.69;100667.75;4996739;28;20153;-66
2023/07/25 08:24:32;;;;;;;3.55;1.23;;;;;;;22.32;49.24;100668.38;4996057;28;20048;-66
2023/07/25 08:27:00;;;;;;;4.13;1.50;;;;;;;22.27;49.33;100672.31;4987228;28;20034;-65
2023/07/25 08:29:26;;;;;;;5.60;1.55;;;;;;;22.31;49.59;100672.88;4996614;28;20042;-64
2023/07/25 08:31:52;;;;;;;4.70;1.27;;;;;;;22.33;49.46;100678.84;4996360;28;20053;-64
2023/07/25 08:34:17;;;;;;;4.10;1.33;;;;;;;22.29;49.19;100669.50;4996722;28;20030;-63
2023/07/25 08:36:42;;;;;;;5.50;1.40;;;;;;;22.28;49.66;100681.94;4997023;28;20029;-66
2023/07/25 08:39:08;;;;;;;5.93;1.48;;;;;;;22.25;49.57;100684.91;4996311;28;20108;-66
2023/07/25 08:41:40;;;;;;;6.20;1.50;;;;;;;22.22;49.79;100687.88;4996486;28;20113;-67
2023/07/25 08:44:09;;;;;;;5.90;1.45;;;;;;;22.25;50.04;100689.38;4996971;28;20031;-67
2023/07/25 08:46:36;;;;;;;4.35;1.48;;;;;;;22.23;49.66;100694.84;4997039;28;20122;-67
2023/07/25 08:49:03;;;;;;;4.82;1.33;;;;;;;22.24;49.78;100693.88;4986607;28;20624;-68
2023/07/25 08:51:33;;;;;;;6.70;1.30;;;;;;;22.26;49.79;100689.22;4995782;28;20030;-66
2023/07/25 08:54:09;;;;;;;7.38;1.55;;;;;;;22.27;49.83;100688.25;4995328;28;20022;-65
2023/07/25 08:56:35;;;;;;;4.10;1.30;;;;;;;22.28;49.83;100700.50;4995231;28;20110;-65
2023/07/25 08:59:03;;;;;;;6.90;1.70;;;;;;;22.28;49.76;100689.06;4995065;28;20480;-66
2023/07/25 09:01:30;;;;;;;5.15;1.40;;;;;;;22.31;49.29;100693.28;4995455;28;20036;-66
2023/07/25 09:03:58;;;;;;;3.50;1.23;;;;;;;22.32;49.47;100694.94;4996366;28;20033;-67
2023/07/25 09:06:24;;;;;;;4.95;1.30;;;;;;;22.35;49.67;100694.63;4996385;28;20042;-67
2023/07/25 09:08:49;;;;;;;5.05;1.63;;;;;;;22.36;49.63;100699.78;4995966;28;20034;-67
2023/07/25 09:11:19;;;;;;;5.10;1.50;;;;;;;22.40;49.22;100695.81;4996191;28;20040;-70
2023/07/25 09:13:45;;;;;;;7.53;1.45;;;;;;;22.44;49.19;100696.34;4995008;28;20030;-66
2023/07/25 09:16:10;;;;;;;6.13;1.27;;;;;;;22.45;49.56;100693.53;4996443;28;20034;-67
2023/07/25 09:18:36;;;;;;;6.20;1.30;;;;;;;22.45;49.69;100695.34;4995774;28;20030;-66
2023/07/25 09:21:02;;;;;;;3.80;1.27;;;;;;;22.44;49.58;100685.72;5028453;28;20443;-69
2023/07/25 09:23:28;;;;;;;5.20;1.42;;;;;;;22.44;49.72;100693.69;4998633;28;20038;-67
2023/07/25 09:26:08;;;;;;;4.72;1.20;;;;;;;22.42;49.95;100699.16;4999134;28;20046;-69
2023/07/25 09:28:34;;;;;;;4.68;1.33;;;;;;;22.42;49.91;100700.97;4999076;28;20042;-67
2023/07/25 09:31:05;;;;;;;8.73;1.33;;;;;;;22.49;47.47;100699.34;4998729;28;20034;-67
2023/07/25 09:33:31;;;;;;;3.42;1.10;;;;;;;22.57;48.31;100693.25;4999191;28;20038;-72
2023/07/25 09:35:57;;;;;;;4.60;1.20;;;;;;;22.68;48.67;100700.94;5001994;28;20038;-69
2023/07/25 09:38:23;;;;;;;4.88;1.40;;;;;;;22.74;48.58;100700.31;4998502;28;20035;-67
2023/07/25 09:40:48;;;;;;;5.18;1.15;;;;;;;22.78;48.58;100701.69;4998812;28;20030;-68
2023/07/25 09:43:27;;;;;;;7.22;1.30;;;;;;;22.79;48.58;100705.16;5001516;28;20054;-69
2023/07/25 09:45:54;;;;;;;4.03;1.27;;;;;;;22.81;48.54;100712.00;4999590;28;20088;-67
2023/07/25 09:48:19;;;;;;;5.63;1.20;;;;;;;22.83;48.24;100717.97;4999894;28;20033;-67
2023/07/25 09:50:45;;;;;;;4.47;1.30;;;;;;;22.83;48.49;100712.66;4999367;28;20021;-67
2023/07/25 09:53:19;;;;;;;5.70;1.25;;;;;;;22.81;48.31;100713.78;5000266;28;20026;-65
2023/07/25 09:55:45;;;;;;;5.60;1.67;;;;;;;22.86;48.39;100713.31;4998981;28;20023;-65
2023/07/25 09:58:12;;;;;;;3.95;1.30;;;;;;;22.86;48.17;100708.00;5000115;28;20034;-68
2023/07/25 10:00:37;;;;;;;5.32;1.20;;;;;;;22.87;48.61;100713.16;5000087;28;20022;-67
2023/07/25 10:03:03;;;;;;;3.35;1.20;;;;;;;22.88;48.72;100709.53;4999723;28;20037;-68
2023/07/25 10:05:29;;;;;;;5.28;1.23;;;;;;;22.89;48.33;100707.69;4998932;28;20031;-69
2023/07/25 10:07:59;;;;;;;6.28;1.00;;;;;;;22.71;48.32;100711.25;4998735;28;20494;-67
2023/07/25 10:10:25;;;;;;;6.18;1.20;;;;;;;22.66;48.59;100710.91;4999546;28;20030;-69
2023/07/25 10:12:52;;;;;;;5.20;1.60;;;;;;;22.57;48.89;100693.25;4998806;28;20057;-68
2023/07/25 10:15:17;;;;;;;6.63;1.30;;;;;;;22.54;49.09;100705.03;4999825;28;20521;-68
2023/07/25 10:17:43;;;;;;;4.90;1.27;;;;;;;22.52;48.79;100708.84;4999171;28;20030;-68
2023/07/25 10:20:18;;;;;;;5.85;1.45;;;;;;;22.53;48.93;100706.03;2782655;28;10000686;-68
2023/07/25 10:22:44;;;;;;;4.47;1.23;;;;;;;22.51;49.21;100705.34;4613072;28;10001003;-70
2023/07/25 10:25:28;;;;;;;6.46;1.57;;;;;;;22.49;49.36;100706.50;362;28;10022947;-69
2023/07/25 10:28:04;;;;;;;2.45;0.90;;;;;;;22.48;48.88;100708.31;4979268;28;20285;-70
2023/07/25 10:30:33;;;;;;;4.18;1.10;;;;;;;22.47;49.05;100709.31;4978213;28;20039;-68
2023/07/25 10:33:03;;;;;;;5.07;1.10;;;;;;;22.48;48.79;100697.69;4978547;28;20379;-70
2023/07/25 10:35:54;;;;;;;5.03;1.30;;;;;;;22.53;48.98;100698.06;4980575;28;20027;-69
2023/07/25 10:38:35;;;;;;;3.35;1.15;;;;;;;22.57;48.64;100707.38;4979170;28;20502;-68
2023/07/25 10:41:09;;;;;;;4.78;1.25;;;;;;;22.59;49.16;100696.59;4979345;28;20034;-66
2023/07/25 10:43:48;;;;;;;4.65;1.10;;;;;;;22.60;49.01;100703.56;4978623;28;20046;-66
2023/07/25 10:46:15;;;;;;;8.25;1.35;;;;;;;22.61;48.63;100698.09;4979655;28;20467;-65
2023/07/25 10:48:46;;;;;;;6.60;1.40;;;;;;;22.59;48.92;100715.19;4978720;28;20046;-67
2023/07/25 10:51:15;;;;;;;4.88;1.60;;;;;;;22.58;49.11;100708.22;4978931;28;20026;-67
2023/07/25 10:54:04;;;;;;;6.20;1.30;;;;;;;22.57;48.82;100717.16;2377632;28;10022765;-67
2023/07/25 10:56:29;;;;;;;5.25;1.30;;;;;;;22.57;48.65;100714.50;3270467;28;10001665;-67
2023/07/25 10:59:10;;;;;;;3.35;1.15;;;;;;;22.54;48.76;100707.69;3281967;28;10002018;-67
2023/07/25 11:01:37;;;;;;;2.60;1.04;;;;;;;22.62;48.56;100704.22;159323;28;10001932;-67
2023/07/25 11:04:26;;;;;;;3.53;1.13;;;;;;;22.60;48.77;100699.06;4979181;28;20034;-66
2023/07/25 11:07:12;;;;;;;4.07;1.23;;;;;;;22.62;49.08;100694.47;4978881;28;20049;-67
2023/07/25 11:09:41;;;;;;;4.75;1.10;;;;;;;22.69;49.06;100702.63;4978512;28;20027;-67
2023/07/25 11:12:08;;;;;;;7.85;1.13;;;;;;;22.82;49.16;100704.84;4977498;28;20058;-67
2023/07/25 11:14:40;;;;;;;4.15;1.15;;;;;;;22.91;48.56;100695.09;4978440;28;20022;-67
2023/07/25 11:17:05;;;;;;;5.18;1.33;;;;;;;22.98;48.52;100693.44;4979443;28;20105;-66
2023/07/25 11:19:30;;;;;;;4.97;0.95;;;;;;;23.01;48.50;100698.44;4979104;28;21521;-67
2023/07/25 11:21:56;;;;;;;5.45;1.38;;;;;;;23.00;48.67;100705.59;4981556;28;20034;-67